This is the latest recevied weather packets stored in our database for station/object EA5CBT-13. If no packets are shown the sender has not sent any weather packets the latest 10 day(s).
| Time | Temp. | Humidity | Pressure | Rain* | Wind** | Luminosity | Snow |
|---|---|---|---|---|---|---|---|
| 1777401924 | 18.33° C | 81% | 1008.1 hPa | 0 mm | - | - | - |
| 1777401395 | 18.33° C | 80% | 1007.7 hPa | 0 mm | - | - | - |
| 1777398942 | 18.89° C | 76% | 1007.2 hPa | 0 mm | - | - | - |
| 1777398334 | 18.89° C | 74% | 1007.4 hPa | 0 mm | - | - | - |
| 1777392374 | 21.67° C | 61% | 1007 hPa | 0 mm | - | - | - |
| 1777389962 | 22.22° C | 58% | 1007.2 hPa | 0 mm | - | - | - |
| 1777386354 | 22.22° C | 57% | 1007.8 hPa | 0 mm | - | - | - |
| 1777385137 | 21.11° C | 61% | 1008.3 hPa | 0 mm | - | - | - |
| 1777382766 | 21.11° C | 61% | 1008.8 hPa | 0 mm | - | - | - |
| 1777380942 | 21.67° C | 62% | 1008.7 hPa | 0 mm | - | - | - |
| 1777374396 | 18.89° C | 69% | 1009.4 hPa | 0.25 mm | - | - | - |
| 1777371335 | 17.78° C | 68% | 1009.8 hPa | 0 mm | - | - | - |
| 1777370120 | 17.22° C | 71% | 1010.8 hPa | 0 mm | - | - | - |
| 1777368964 | 18.33° C | 66% | 1012.4 hPa | 0 mm | - | - | - |
| 1777366532 | 17.78° C | 70% | 1011.7 hPa | 0 mm | - | - | - |
| 1777361730 | 17.22° C | 77% | 1010.1 hPa | 0 mm | - | - | - |
| 1777359358 | 17.22° C | 76% | 1011.2 hPa | 0 mm | - | - | - |
| 1777355772 | 15.56° C | 80% | 1011.7 hPa | 0 mm | - | - | - |
| 1777352733 | 15.56° C | 82% | 1010.3 hPa | 0 mm | - | - | - |
| 1777343736 | 15.56° C | 86% | 1010.9 hPa | 0 mm | - | - | - |
| 1777343129 | 15.56° C | 86% | 1011.1 hPa | 0 mm | - | - | - |
| 1777342541 | 15.56° C | 86% | 1011.2 hPa | 0 mm | - | - | - |
| 1777339562 | 15.56° C | 86% | 1011.9 hPa | 0 mm | - | - | - |
| 1777335977 | 16.67° C | 84% | 1012.5 hPa | 0 mm | - | - | - |
| 1777335349 | 16.67° C | 84% | 1012.5 hPa | 0 mm | - | - | - |
* Rain latest hour (hover to see other rain measurements)
** Current wind speed in m/s (hover to see current wind gust speed)